Terminal Aerodrome Forecast
Issued by NWS

Current Version | Previous Version | Text Only | Print | Product List | Glossary On
Versions: 1 2 3 4 5 6 7 8 9 10 11 12 13 14 15 16 17 18 19 20 21 22 23 24 25 26 27 28 29 30 31
000
FTUS41 KOKX 252000 AAA
TAFGON
TAF AMD
KGON 252044Z 2521/2618 25008KT P6SM SCT060 BKN200
     FM260200 32004KT P6SM BKN120
     FM260800 01006KT P6SM SCT070 OVC100
     FM261000 01006KT 6SM -RA BKN035
     FM261200 03010KT 4SM -RA OVC015
     FM261400 04017G24KT 4SM -RASN OVC009
     FM261600 04017G24KT 2SM -RASN OVC006=

USA.gov is the U.S. government's official web portal to all federal, state and local government web resources and services.